Time;durP1;ratioP1;P1;durP2;ratioP2;P2;SDS_P1;SDS_P2;PMS_P1;PMS_P2;Temp;Humidity;BMP_temperature;BMP_pressure;BME280_temperature;BME280_humidity;BME280_pressure;Samples;Min_cycle;Max_cycle;Signal;HPM_P1;HPM_P2
2024/01/05 00:00:59;;;;;;;6.15;3.67;;;;;;;-146.25;100.00;52660.19;2079674;28;31693;-70
2024/01/05 00:02:02;;;;;;;6.15;4.00;;;;;;;-146.25;100.00;52631.78;2080591;28;20042;-71
2024/01/05 00:03:04;;;;;;;7.93;4.05;;;;;;;-146.25;100.00;52635.84;2079751;28;36102;-70
2024/01/05 00:04:06;;;;;;;6.78;3.90;;;;;;;-146.25;100.00;52654.09;2079425;28;29886;-70
2024/01/05 00:05:10;;;;;;;5.88;3.63;;;;;;;-146.25;100.00;52652.06;2079765;28;20164;-70
2024/01/05 00:06:13;;;;;;;4.60;3.40;;;;;;;-146.25;100.00;52666.25;2080181;28;20041;-71
2024/01/05 00:07:15;;;;;;;6.00;3.78;;;;;;;-146.25;100.00;52662.22;2079837;28;32853;-71
2024/01/05 00:08:17;;;;;;;5.53;3.40;;;;;;;-146.25;100.00;52698.72;2079915;28;34830;-71
2024/01/05 00:09:18;;;;;;;5.05;3.53;;;;;;;-146.25;100.00;52652.06;2079605;28;35352;-71
2024/01/05 00:10:21;;;;;;;4.63;3.50;;;;;;;-146.25;100.00;52688.56;2080398;28;20041;-70
2024/01/05 00:11:25;;;;;;;5.72;3.60;;;;;;;-146.25;100.00;52648.00;2079889;28;20923;-70
2024/01/05 00:12:27;;;;;;;5.75;3.35;;;;;;;-146.25;100.00;52645.97;2079025;28;34412;-70
2024/01/05 00:13:29;;;;;;;6.32;3.70;;;;;;;-146.25;100.00;52656.13;2079747;28;32390;-70
2024/01/05 00:14:36;;;;;;;5.55;3.67;;;;;;;-146.25;100.00;52643.97;2087830;28;36543;-71
2024/01/05 00:15:38;;;;;;;6.55;4.10;;;;;;;-146.25;100.00;52654.09;2086775;28;33487;-71
2024/01/05 00:16:39;;;;;;;5.55;3.65;;;;;;;-146.25;100.00;52672.34;2079402;28;36003;-71
2024/01/05 00:17:41;;;;;;;6.93;3.83;;;;;;;-146.25;100.00;52635.84;2079755;28;28961;-71
2024/01/05 00:18:43;;;;;;;5.47;3.70;;;;;;;-146.25;100.00;52639.91;2079623;28;35192;-71
2024/01/05 00:19:45;;;;;;;4.65;3.38;;;;;;;-146.25;100.00;52639.91;2079911;28;35938;-70
2024/01/05 00:20:47;;;;;;;5.93;4.15;;;;;;;-146.25;100.00;52668.28;2079902;28;32189;-71
2024/01/05 00:21:50;;;;;;;5.28;3.70;;;;;;;-146.25;100.00;52633.81;2078723;28;37449;-70
2024/01/05 00:22:52;;;;;;;4.53;3.50;;;;;;;-146.25;100.00;52631.78;2079614;28;20049;-71
2024/01/05 00:23:57;;;;;;;6.43;3.90;;;;;;;-146.25;100.00;52670.31;2080391;28;20038;-71
2024/01/05 00:24:59;;;;;;;6.07;3.78;;;;;;;-146.25;100.00;52635.84;2079647;28;33532;-71
2024/01/05 00:26:04;;;;;;;5.15;3.25;;;;;;;-146.25;100.00;52648.00;2079905;28;34080;-71
2024/01/05 00:27:08;;;;;;;5.32;3.67;;;;;;;-146.25;100.00;52674.38;2080955;28;20042;-71
2024/01/05 00:28:10;;;;;;;5.72;3.25;;;;;;;-146.25;100.00;52686.53;2080603;28;20049;-71
2024/01/05 00:29:12;;;;;;;4.20;3.20;;;;;;;-146.25;100.00;52682.47;2086961;28;38519;-68
2024/01/05 00:30:16;;;;;;;6.22;3.65;;;;;;;-146.25;100.00;52627.75;2087178;28;33511;-71
2024/01/05 00:31:19;;;;;;;5.82;3.65;;;;;;;-146.25;100.00;52645.97;2079594;28;32636;-69
2024/01/05 00:32:21;;;;;;;5.00;3.67;;;;;;;-146.25;100.00;52650.03;2079826;28;34664;-70
2024/01/05 00:33:22;;;;;;;5.57;3.40;;;;;;;-146.25;100.00;52619.63;2087793;28;20144;-69
2024/01/05 00:34:24;;;;;;;6.25;3.67;;;;;;;-146.25;100.00;52603.41;2086903;28;33428;-69
2024/01/05 00:35:29;;;;;;;5.18;3.47;;;;;;;-146.25;100.00;52674.38;2079176;28;32834;-69
2024/01/05 00:36:31;;;;;;;5.15;3.45;;;;;;;-146.25;100.00;52666.25;2079511;28;33623;-71
2024/01/05 00:37:32;;;;;;;4.07;3.20;;;;;;;-146.25;100.00;52654.09;2079474;28;38347;-70
2024/01/05 00:38:35;;;;;;;7.03;3.30;;;;;;;-146.25;100.00;52639.91;2079481;28;32963;-71
2024/01/05 00:39:37;;;;;;;5.45;3.70;;;;;;;-146.25;100.00;52631.78;2087003;28;37023;-69
2024/01/05 00:40:39;;;;;;;5.00;3.50;;;;;;;-146.25;100.00;52639.91;2087626;28;20784;-69
2024/01/05 00:41:41;;;;;;;5.25;3.20;;;;;;;-146.25;100.00;52637.88;2079098;28;36855;-69
2024/01/05 00:42:43;;;;;;;5.63;3.55;;;;;;;-146.25;100.00;52648.00;2079104;28;35247;-69
2024/01/05 00:43:45;;;;;;;5.10;4.20;;;;;;;-146.25;100.00;52654.09;2079442;28;32919;-70
2024/01/05 00:44:47;;;;;;;4.82;3.72;;;;;;;-146.25;100.00;52656.13;2079424;28;36009;-69
2024/01/05 00:45:48;;;;;;;6.40;3.80;;;;;;;-146.25;100.00;52635.84;2080256;28;20042;-69
2024/01/05 00:46:52;;;;;;;7.40;4.38;;;;;;;-146.25;100.00;52635.84;2079159;28;36301;-69
2024/01/05 00:47:55;;;;;;;4.32;3.05;;;;;;;-146.25;100.00;52615.56;2079941;28;20041;-70
2024/01/05 00:48:57;;;;;;;5.90;3.50;;;;;;;-146.25;100.00;52684.50;2087226;28;32145;-69
2024/01/05 00:49:59;;;;;;;5.60;3.92;;;;;;;-146.25;100.00;52631.78;2078930;28;32881;-70
2024/01/05 00:51:01;;;;;;;5.30;3.78;;;;;;;-146.25;100.00;52670.31;2079832;28;20042;-70
2024/01/05 00:52:04;;;;;;;5.22;3.58;;;;;;;-146.25;100.00;52623.69;2078840;28;36314;-70
2024/01/05 00:53:06;;;;;;;7.18;4.22;;;;;;;-146.25;100.00;52631.78;2078890;28;33064;-69
2024/01/05 00:54:07;;;;;;;5.18;3.50;;;;;;;-146.25;100.00;52625.72;2079611;28;33812;-69
2024/01/05 00:55:09;;;;;;;5.70;3.70;;;;;;;-146.25;100.00;52668.28;2079562;28;36264;-70
2024/01/05 00:56:12;;;;;;;6.10;3.75;;;;;;;-146.25;100.00;52668.28;2080042;28;20053;-69
2024/01/05 00:57:14;;;;;;;6.28;3.88;;;;;;;-146.25;100.00;52617.59;2079774;28;32224;-69
2024/01/05 00:58:16;;;;;;;4.95;3.58;;;;;;;-146.25;100.00;52633.81;2080233;28;20042;-70
2024/01/05 00:59:23;;;;;;;6.32;3.40;;;;;;;-146.25;100.00;52662.22;2080011;28;35438;-70
2024/01/05 01:00:25;;;;;;;4.97;3.50;;;;;;;-146.25;100.00;52666.25;2079399;28;33179;-70
2024/01/05 01:01:27;;;;;;;5.60;4.07;;;;;;;-146.25;100.00;52641.94;2078960;28;31889;-69
2024/01/05 01:02:32;;;;;;;6.53;3.83;;;;;;;-146.25;100.00;52654.09;2078819;28;32815;-69
2024/01/05 01:03:33;;;;;;;5.13;3.83;;;;;;;-146.25;100.00;52641.94;2080170;28;20168;-70
2024/01/05 01:04:36;;;;;;;5.55;3.85;;;;;;;-146.25;100.00;52674.38;2079471;28;20926;-69
2024/01/05 01:05:41;;;;;;;5.18;3.92;;;;;;;-146.25;100.00;52660.19;2079525;28;20034;-70
2024/01/05 01:06:43;;;;;;;5.97;4.00;;;;;;;-146.25;100.00;52674.38;2079720;28;20046;-70
2024/01/05 01:07:45;;;;;;;5.50;3.95;;;;;;;-146.25;100.00;52635.84;2079539;28;36892;-70
2024/01/05 01:08:47;;;;;;;6.07;3.88;;;;;;;-146.25;100.00;52625.72;2079507;28;35017;-69
2024/01/05 01:09:49;;;;;;;6.93;3.88;;;;;;;-146.25;100.00;52658.16;2079124;28;34647;-69
2024/01/05 01:10:53;;;;;;;7.25;3.88;;;;;;;-146.25;100.00;52648.00;2086683;28;36945;-71
2024/01/05 01:11:54;;;;;;;7.00;4.70;;;;;;;-146.25;100.00;52648.00;2087057;28;20153;-69
2024/01/05 01:12:56;;;;;;;7.03;3.95;;;;;;;-146.25;100.00;52631.78;2079692;28;31789;-69
2024/01/05 01:13:58;;;;;;;5.80;3.88;;;;;;;-146.25;100.00;52650.03;2079513;28;34115;-70
2024/01/05 01:15:01;;;;;;;7.70;4.55;;;;;;;-146.25;100.00;52658.16;2087074;28;32646;-70
2024/01/05 01:16:03;;;;;;;7.22;4.40;;;;;;;-146.25;100.00;52648.00;2078939;28;36026;-70
2024/01/05 01:17:05;;;;;;;7.80;4.68;;;;;;;-146.25;100.00;52623.69;2078854;28;38402;-69
2024/01/05 01:18:07;;;;;;;7.03;4.38;;;;;;;-146.25;100.00;52635.84;2079377;28;35028;-70
2024/01/05 01:19:11;;;;;;;8.30;4.85;;;;;;;-146.25;100.00;52625.72;2079214;28;35711;-69
2024/01/05 01:20:14;;;;;;;6.30;4.50;;;;;;;-146.25;100.00;52660.19;2080258;28;20896;-69
2024/01/05 01:21:17;;;;;;;8.07;4.18;;;;;;;-146.25;100.00;52645.97;2080875;28;32979;-70
2024/01/05 01:22:19;;;;;;;8.07;4.25;;;;;;;-146.25;100.00;52643.97;2080856;28;34358;-71
2024/01/05 01:23:20;;;;;;;7.30;4.65;;;;;;;-146.25;100.00;52656.13;2081496;28;20042;-70
2024/01/05 01:24:22;;;;;;;8.60;4.63;;;;;;;-146.25;100.00;52670.31;2081088;28;30853;-71
2024/01/05 01:25:24;;;;;;;7.28;4.85;;;;;;;-146.25;100.00;52635.84;2081018;28;34099;-69
2024/01/05 01:26:26;;;;;;;6.72;4.32;;;;;;;-146.25;100.00;52676.41;2081126;28;31395;-70
2024/01/05 01:27:27;;;;;;;8.43;4.78;;;;;;;-146.25;100.00;52660.19;2081419;28;20671;-68
2024/01/05 01:28:30;;;;;;;5.85;4.55;;;;;;;-146.25;100.00;52635.84;2080630;28;35484;-70
2024/01/05 01:29:32;;;;;;;6.38;4.28;;;;;;;-146.25;100.00;52607.47;2080879;28;32848;-70
2024/01/05 01:30:33;;;;;;;5.93;4.13;;;;;;;-146.25;100.00;52629.75;2080907;28;37646;-68
2024/01/05 01:31:35;;;;;;;8.18;5.15;;;;;;;-146.25;100.00;52607.47;2081227;28;20046;-69
2024/01/05 01:32:37;;;;;;;8.65;4.72;;;;;;;-146.25;100.00;52652.06;2080499;28;34678;-70
2024/01/05 01:33:39;;;;;;;8.50;4.57;;;;;;;-146.25;100.00;52662.22;2080867;28;34802;-71
2024/01/05 01:34:41;;;;;;;7.55;4.45;;;;;;;-146.25;100.00;52684.50;2081200;28;34750;-69
2024/01/05 01:35:45;;;;;;;8.07;4.97;;;;;;;-146.25;100.00;52631.78;2080535;28;37766;-71
2024/01/05 01:36:46;;;;;;;9.60;4.28;;;;;;;-146.25;100.00;52639.91;2080936;28;33265;-69
2024/01/05 01:37:48;;;;;;;6.80;4.75;;;;;;;-146.25;100.00;52641.94;2080798;28;32892;-69
2024/01/05 01:38:50;;;;;;;6.45;4.35;;;;;;;-146.25;100.00;52666.25;2080589;28;35659;-68
2024/01/05 01:39:52;;;;;;;7.63;4.47;;;;;;;-146.25;100.00;52623.69;2088375;28;34035;-70
2024/01/05 01:40:56;;;;;;;7.43;4.50;;;;;;;-146.25;100.00;52650.03;2088125;28;33558;-69
2024/01/05 01:41:59;;;;;;;8.13;4.50;;;;;;;-146.25;100.00;52674.38;2080510;28;37161;-69
2024/01/05 01:43:01;;;;;;;9.70;4.80;;;;;;;-146.25;100.00;52676.41;2080646;28;32453;-69
2024/01/05 01:44:03;;;;;;;7.80;4.88;;;;;;;-146.25;100.00;52656.13;2080842;28;20156;-70
2024/01/05 01:45:08;;;;;;;9.73;5.43;;;;;;;-146.25;100.00;52652.06;2080829;28;20095;-69
2024/01/05 01:46:13;;;;;;;8.88;5.60;;;;;;;-146.25;100.00;52666.25;2080273;28;32979;-70
2024/01/05 01:47:15;;;;;;;10.30;5.60;;;;;;;-146.25;100.00;52648.00;2080375;28;33311;-69
2024/01/05 01:48:19;;;;;;;8.20;5.07;;;;;;;-146.25;100.00;52650.03;2080176;28;28278;-70
2024/01/05 01:49:25;;;;;;;8.95;5.07;;;;;;;-146.25;100.00;52666.25;2081471;28;20053;-70
2024/01/05 01:50:30;;;;;;;8.75;5.30;;;;;;;-146.25;100.00;52643.97;2079872;28;32540;-69
2024/01/05 01:51:32;;;;;;;8.40;5.57;;;;;;;-146.25;100.00;52656.13;2080728;28;20169;-70
2024/01/05 01:52:40;;;;;;;8.85;5.35;;;;;;;-146.25;100.00;52656.13;2080084;28;38816;-70
2024/01/05 01:53:43;;;;;;;13.88;5.63;;;;;;;-146.25;100.00;52648.00;2080485;28;33748;-69
2024/01/05 01:54:45;;;;;;;10.25;5.63;;;;;;;-146.25;100.00;52625.72;2081130;28;22006;-70
2024/01/05 01:55:48;;;;;;;8.38;5.70;;;;;;;-146.25;100.00;52633.81;2081417;28;20030;-69
2024/01/05 01:56:52;;;;;;;11.30;5.97;;;;;;;-146.25;100.00;52639.91;2080782;28;20116;-70
2024/01/05 01:57:54;;;;;;;10.60;6.20;;;;;;;-146.25;100.00;52656.13;2080080;28;33123;-69
2024/01/05 01:58:56;;;;;;;10.05;6.00;;;;;;;-146.25;100.00;52668.28;2080965;28;20147;-70
2024/01/05 01:59:58;;;;;;;10.43;5.68;;;;;;;-146.25;100.00;52607.47;2089007;28;20041;-70
2024/01/05 02:01:00;;;;;;;11.20;5.68;;;;;;;-146.25;100.00;52625.72;2079679;28;37802;-70
2024/01/05 02:02:05;;;;;;;11.80;6.47;;;;;;;-146.25;100.00;52629.75;2080238;28;34051;-68
2024/01/05 02:03:11;;;;;;;10.65;6.15;;;;;;;-146.25;100.00;52629.75;2079986;28;32500;-70
2024/01/05 02:04:18;;;;;;;10.57;6.57;;;;;;;-146.25;100.00;52641.94;2080018;28;36776;-71
2024/01/05 02:05:20;;;;;;;10.90;6.30;;;;;;;-146.25;100.00;52670.31;2081761;28;36688;-70
2024/01/05 02:06:24;;;;;;;11.63;6.95;;;;;;;-146.25;100.00;52639.91;2088295;28;34959;-70
2024/01/05 02:07:26;;;;;;;12.88;6.40;;;;;;;-146.25;100.00;52650.03;2080113;28;34627;-67
2024/01/05 02:08:28;;;;;;;11.88;6.45;;;;;;;-146.25;100.00;52672.34;2080478;28;20093;-69
2024/01/05 02:09:30;;;;;;;11.35;7.18;;;;;;;-146.25;100.00;52670.31;2079723;28;35601;-69
2024/01/05 02:10:34;;;;;;;13.27;6.80;;;;;;;-146.25;100.00;52607.47;2080029;28;34283;-70
2024/01/05 02:11:37;;;;;;;10.75;6.97;;;;;;;-146.25;100.00;52643.97;2080272;28;32216;-71
2024/01/05 02:12:39;;;;;;;13.93;6.95;;;;;;;-146.25;100.00;52635.84;2088057;28;37485;-69
2024/01/05 02:13:40;;;;;;;12.10;7.10;;;;;;;-146.25;100.00;52643.97;2088828;28;20041;-70
2024/01/05 02:14:45;;;;;;;13.73;6.78;;;;;;;-146.25;100.00;52617.59;2080828;28;20134;-68
2024/01/05 02:15:47;;;;;;;11.25;6.65;;;;;;;-146.25;100.00;52668.28;2080649;28;35828;-71
2024/01/05 02:16:51;;;;;;;14.68;7.97;;;;;;;-146.25;100.00;52629.75;2081251;28;20042;-70
2024/01/05 02:17:53;;;;;;;12.50;7.22;;;;;;;-146.25;100.00;52670.31;2080459;28;31626;-69
2024/01/05 02:18:57;;;;;;;12.77;7.10;;;;;;;-146.25;100.00;52650.03;2079942;28;32192;-70
2024/01/05 02:20:01;;;;;;;14.18;7.47;;;;;;;-146.25;100.00;52680.47;2079792;28;34655;-70
2024/01/05 02:21:08;;;;;;;12.70;7.40;;;;;;;-146.25;100.00;52623.69;2079740;28;34372;-71
2024/01/05 02:22:12;;;;;;;11.98;7.03;;;;;;;-146.25;100.00;52633.81;2080921;28;20135;-71
2024/01/05 02:23:25;;;;;;;13.60;7.88;;;;;;;-146.25;100.00;52652.06;2079921;28;26148;-68
2024/01/05 02:24:29;;;;;;;13.77;7.78;;;;;;;-146.25;100.00;52656.13;2080209;28;34565;-69
2024/01/05 02:25:31;;;;;;;13.43;6.82;;;;;;;-146.25;100.00;52637.88;2080479;28;32896;-70
2024/01/05 02:26:35;;;;;;;13.10;7.80;;;;;;;-146.25;100.00;52639.91;2079941;28;37446;-70
2024/01/05 02:27:37;;;;;;;15.20;7.82;;;;;;;-146.25;100.00;52672.34;2079675;28;35601;-70
2024/01/05 02:28:38;;;;;;;13.50;8.43;;;;;;;-146.25;100.00;52633.81;2081200;28;31285;-70
2024/01/05 02:29:40;;;;;;;11.82;7.05;;;;;;;-146.25;100.00;52660.19;2080126;28;34983;-69
2024/01/05 02:30:42;;;;;;;14.85;7.80;;;;;;;-146.25;100.00;52643.97;2080489;28;34733;-70
2024/01/05 02:31:44;;;;;;;14.75;8.02;;;;;;;-146.25;100.00;52652.06;2079859;28;36258;-71
2024/01/05 02:32:45;;;;;;;15.57;7.93;;;;;;;-146.25;100.00;52654.09;2080051;28;20124;-71
2024/01/05 02:33:52;;;;;;;15.40;8.10;;;;;;;-146.25;100.00;52639.91;2080153;28;20034;-69
2024/01/05 02:34:54;;;;;;;16.75;8.15;;;;;;;-146.25;100.00;52648.00;2079959;28;34808;-70
2024/01/05 02:35:56;;;;;;;14.02;7.53;;;;;;;-146.25;100.00;52666.25;2080360;28;35684;-70
2024/01/05 02:36:58;;;;;;;15.50;8.48;;;;;;;-146.25;100.00;52629.75;2081264;28;20050;-72
2024/01/05 02:38:01;;;;;;;16.70;8.32;;;;;;;-146.25;100.00;52645.97;2079776;28;36814;-71
2024/01/05 02:39:05;;;;;;;15.57;7.95;;;;;;;-146.25;100.00;52639.91;2088244;28;31279;-70
2024/01/05 02:40:10;;;;;;;15.30;8.13;;;;;;;-146.25;100.00;52658.16;2087131;28;33295;-69
2024/01/05 02:41:14;;;;;;;13.20;8.10;;;;;;;-146.25;100.00;52643.97;2080582;28;31840;-70
2024/01/05 02:42:15;;;;;;;15.45;8.50;;;;;;;-146.25;100.00;52637.88;2080501;28;20816;-71
2024/01/05 02:43:19;;;;;;;19.05;8.90;;;;;;;-146.25;100.00;52652.06;2081109;28;20903;-71
2024/01/05 02:44:21;;;;;;;16.25;8.77;;;;;;;-146.25;100.00;52625.72;2080403;28;31713;-70
2024/01/05 02:45:24;;;;;;;15.23;7.78;;;;;;;-146.25;100.00;52639.91;2081458;28;20764;-70
2024/01/05 02:46:28;;;;;;;16.52;8.35;;;;;;;-146.25;100.00;52652.06;2079877;28;33740;-71
2024/01/05 02:47:31;;;;;;;16.65;8.50;;;;;;;-146.25;100.00;52670.31;2087919;28;33638;-70
2024/01/05 02:48:33;;;;;;;20.13;9.60;;;;;;;-146.25;100.00;52648.00;2079536;28;20926;-71
2024/01/05 02:49:35;;;;;;;17.35;8.30;;;;;;;-146.25;100.00;52621.66;2080583;28;20049;-70
2024/01/05 02:50:37;;;;;;;17.45;8.55;;;;;;;-146.25;100.00;52652.06;2079907;28;37193;-70
2024/01/05 02:51:39;;;;;;;19.25;8.70;;;;;;;-146.25;100.00;52662.22;2080009;28;20249;-71
2024/01/05 02:52:41;;;;;;;15.93;8.88;;;;;;;-146.25;100.00;52603.41;2079913;28;36856;-69
2024/01/05 02:53:45;;;;;;;18.40;10.10;;;;;;;-146.25;100.00;52648.00;2079815;28;34061;-70
2024/01/05 02:54:47;;;;;;;16.02;8.52;;;;;;;-146.25;100.00;52637.88;2079830;28;20519;-70
2024/01/05 02:55:49;;;;;;;17.65;8.05;;;;;;;-146.25;100.00;52617.59;2080278;28;36517;-70
2024/01/05 02:56:51;;;;;;;17.17;9.38;;;;;;;-146.25;100.00;52633.81;2080710;28;20977;-70
2024/01/05 02:57:55;;;;;;;16.02;8.27;;;;;;;-146.25;100.00;52623.69;2080560;28;33075;-69
2024/01/05 02:58:56;;;;;;;19.30;9.32;;;;;;;-146.25;100.00;52631.78;2080092;28;33478;-70
2024/01/05 02:59:59;;;;;;;17.88;8.93;;;;;;;-146.25;100.00;52631.78;2081077;28;20085;-70
2024/01/05 03:01:01;;;;;;;17.55;9.00;;;;;;;-146.25;100.00;52645.97;2078979;28;36272;-70
2024/01/05 03:02:03;;;;;;;17.05;8.88;;;;;;;-146.25;100.00;52603.41;2080307;28;32744;-70
2024/01/05 03:03:05;;;;;;;16.60;8.73;;;;;;;-146.25;100.00;52652.06;2079017;28;30878;-70
2024/01/05 03:04:11;;;;;;;13.65;7.93;;;;;;;-146.25;100.00;52645.97;2079925;28;33637;-70
2024/01/05 03:05:13;;;;;;;18.83;8.85;;;;;;;-146.25;100.00;52641.94;2080205;28;20169;-70
2024/01/05 03:06:16;;;;;;;18.27;8.57;;;;;;;-146.25;100.00;52648.00;2079778;28;37065;-70
2024/01/05 03:07:18;;;;;;;17.58;8.80;;;;;;;-146.25;100.00;52648.00;2079828;28;32734;-70
2024/01/05 03:08:19;;;;;;;17.67;9.32;;;;;;;-146.25;100.00;52629.75;2080630;28;31263;-70
2024/01/05 03:09:21;;;;;;;15.25;8.65;;;;;;;-146.25;100.00;52684.50;2088272;28;20116;-70
2024/01/05 03:10:25;;;;;;;15.70;8.00;;;;;;;-146.25;100.00;52617.59;2087660;28;34883;-70
2024/01/05 03:11:27;;;;;;;15.57;8.23;;;;;;;-146.25;100.00;52615.56;2080067;28;34642;-70
2024/01/05 03:12:29;;;;;;;15.70;8.65;;;;;;;-146.25;100.00;52619.63;2080945;28;20115;-70
2024/01/05 03:13:31;;;;;;;19.33;8.70;;;;;;;-146.25;100.00;52639.91;2080270;28;31806;-69
2024/01/05 03:14:34;;;;;;;18.45;9.65;;;;;;;-146.25;100.00;52680.47;2081227;28;20030;-70
2024/01/05 03:15:40;;;;;;;15.90;8.43;;;;;;;-146.25;100.00;52645.97;2080679;28;21153;-70
2024/01/05 03:16:42;;;;;;;15.98;8.80;;;;;;;-146.25;100.00;52641.94;2080481;28;33032;-70
2024/01/05 03:17:44;;;;;;;16.42;8.32;;;;;;;-146.25;100.00;52611.50;2080612;28;20811;-71
2024/01/05 03:18:46;;;;;;;15.00;7.20;;;;;;;-146.25;100.00;52619.63;2080171;28;37108;-69
2024/01/05 03:19:48;;;;;;;16.55;8.25;;;;;;;-146.25;100.00;52648.00;2087827;28;20889;-70
2024/01/05 03:20:49;;;;;;;16.90;9.25;;;;;;;-146.25;100.00;52627.75;2079317;28;37355;-70
2024/01/05 03:21:51;;;;;;;15.70;9.10;;;;;;;-146.25;100.00;52650.03;2079321;28;29593;-70
2024/01/05 03:22:53;;;;;;;18.77;9.32;;;;;;;-146.25;100.00;52629.75;2087930;28;21008;-69
2024/01/05 03:23:55;;;;;;;14.88;8.88;;;;;;;-146.25;100.00;52645.97;2079515;28;36640;-70
2024/01/05 03:24:57;;;;;;;18.65;8.55;;;;;;;-146.25;100.00;52643.97;2080971;28;20089;-70
2024/01/05 03:25:59;;;;;;;15.60;9.07;;;;;;;-146.25;100.00;52625.72;2079700;28;38967;-70
2024/01/05 03:27:00;;;;;;;17.85;8.73;;;;;;;-146.25;100.00;52621.66;2080943;28;21009;-70
2024/01/05 03:28:05;;;;;;;17.13;8.63;;;;;;;-146.25;100.00;52631.78;2079507;28;30169;-70
2024/01/05 03:29:06;;;;;;;17.95;8.95;;;;;;;-146.25;100.00;52621.66;2080233;28;34215;-70
2024/01/05 03:30:09;;;;;;;16.77;8.77;;;;;;;-146.25;100.00;52631.78;2079274;28;35005;-70
2024/01/05 03:31:12;;;;;;;16.65;8.85;;;;;;;-146.25;100.00;52621.66;2079823;28;35548;-70
2024/01/05 03:32:16;;;;;;;17.58;9.05;;;;;;;-146.25;100.00;52623.69;2079808;28;34792;-70
2024/01/05 03:33:21;;;;;;;18.25;9.45;;;;;;;-146.25;100.00;52615.56;2079910;28;34399;-71
2024/01/05 03:34:23;;;;;;;18.60;9.68;;;;;;;-146.25;100.00;52611.50;2087358;28;36615;-71
2024/01/05 03:35:26;;;;;;;16.30;8.52;;;;;;;-146.25;100.00;52631.78;2088787;28;20040;-70
2024/01/05 03:36:28;;;;;;;17.52;9.10;;;;;;;-146.25;100.00;52633.81;2086434;28;35564;-69
2024/01/05 03:37:29;;;;;;;15.93;8.52;;;;;;;-146.25;100.00;52631.78;2079995;28;34018;-70
2024/01/05 03:38:31;;;;;;;18.83;10.02;;;;;;;-146.25;100.00;52631.78;2079743;28;32817;-70
2024/01/05 03:39:36;;;;;;;19.48;8.80;;;;;;;-146.25;100.00;52648.00;2080117;28;20042;-69
2024/01/05 03:40:38;;;;;;;18.60;9.50;;;;;;;-146.25;100.00;52585.16;2080649;28;20848;-70
2024/01/05 03:41:40;;;;;;;17.55;8.60;;;;;;;-146.25;100.00;52658.16;2079979;28;35702;-69
2024/01/05 03:42:41;;;;;;;18.15;9.02;;;;;;;-146.25;100.00;52603.41;2079685;28;36845;-69
2024/01/05 03:43:43;;;;;;;21.23;10.23;;;;;;;-146.25;100.00;52656.13;2080422;28;20128;-70
2024/01/05 03:44:45;;;;;;;19.60;9.68;;;;;;;-146.25;100.00;52633.81;2079594;28;36386;-69
2024/01/05 03:45:46;;;;;;;17.23;9.50;;;;;;;-146.25;100.00;52611.50;2080446;28;31980;-69
2024/01/05 03:46:51;;;;;;;17.45;9.05;;;;;;;-146.25;100.00;52654.09;2080354;28;20170;-69
2024/01/05 03:47:53;;;;;;;17.60;9.25;;;;;;;-146.25;100.00;52672.34;2079460;28;37178;-69
2024/01/05 03:48:55;;;;;;;18.35;9.65;;;;;;;-146.25;100.00;52643.97;2079386;28;33393;-70
2024/01/05 03:50:01;;;;;;;16.85;9.45;;;;;;;-146.25;100.00;52650.03;2080887;28;20156;-69
2024/01/05 03:51:03;;;;;;;18.98;9.65;;;;;;;-146.25;100.00;52639.91;2080019;28;32606;-69
2024/01/05 03:52:05;;;;;;;19.27;9.60;;;;;;;-146.25;100.00;52672.34;2080062;28;32559;-70
2024/01/05 03:53:07;;;;;;;22.50;10.82;;;;;;;-146.25;100.00;52645.97;2080517;28;20073;-69
2024/01/05 03:54:11;;;;;;;18.48;9.38;;;;;;;-146.25;100.00;52633.81;2080072;28;36469;-69
2024/01/05 03:55:13;;;;;;;19.20;9.48;;;;;;;-146.25;100.00;52613.53;2079535;28;35005;-71
2024/01/05 03:56:18;;;;;;;18.35;9.15;;;;;;;-146.25;100.00;52652.06;2080212;28;32169;-69
2024/01/05 03:57:21;;;;;;;18.17;9.98;;;;;;;-146.25;100.00;52611.50;2079846;28;35457;-69
2024/01/05 03:58:25;;;;;;;21.05;10.40;;;;;;;-146.25;100.00;52639.91;2080195;28;35989;-69
2024/01/05 03:59:27;;;;;;;17.77;9.70;;;;;;;-146.25;100.00;52664.22;2079780;28;31274;-69
2024/01/05 04:00:28;;;;;;;18.60;9.50;;;;;;;-146.25;100.00;52652.06;2079942;28;36977;-69
2024/01/05 04:01:30;;;;;;;20.88;10.93;;;;;;;-146.25;100.00;52623.69;2079441;28;32884;-69
2024/01/05 04:02:32;;;;;;;21.10;10.77;;;;;;;-146.25;100.00;52648.00;2079926;28;32604;-69
2024/01/05 04:03:34;;;;;;;21.80;10.70;;;;;;;-146.25;100.00;52629.75;2079339;28;36700;-69
2024/01/05 04:04:36;;;;;;;17.80;9.63;;;;;;;-146.25;100.00;52609.50;2080941;28;20038;-69
2024/01/05 04:05:38;;;;;;;23.27;10.35;;;;;;;-146.25;100.00;52633.81;2079633;28;33935;-69
2024/01/05 04:06:41;;;;;;;21.83;10.60;;;;;;;-146.25;100.00;52611.50;2080103;28;34475;-69
2024/01/05 04:07:43;;;;;;;22.05;10.43;;;;;;;-146.25;100.00;52666.25;2080297;28;20045;-70
2024/01/05 04:08:45;;;;;;;19.33;10.00;;;;;;;-146.25;100.00;52635.84;2080115;28;32638;-69
2024/01/05 04:09:48;;;;;;;23.13;10.15;;;;;;;-146.25;100.00;52625.72;2080249;28;20034;-68
2024/01/05 04:10:50;;;;;;;23.27;10.00;;;;;;;-146.25;100.00;52619.63;2080787;28;20046;-69
2024/01/05 04:11:52;;;;;;;20.60;10.48;;;;;;;-146.25;100.00;52652.06;2079320;28;36725;-69
2024/01/05 04:12:54;;;;;;;22.27;10.23;;;;;;;-146.25;100.00;52617.59;2079080;28;33584;-70
2024/01/05 04:13:58;;;;;;;20.33;9.73;;;;;;;-146.25;100.00;52656.13;2079414;28;20038;-70
2024/01/05 04:15:00;;;;;;;19.05;9.50;;;;;;;-146.25;100.00;52613.53;2079819;28;36975;-71
2024/01/05 04:16:02;;;;;;;19.40;9.80;;;;;;;-146.25;100.00;52656.13;2087211;28;37729;-69
2024/01/05 04:17:06;;;;;;;24.67;11.18;;;;;;;-146.25;100.00;52686.53;2087973;28;20165;-69
2024/01/05 04:18:08;;;;;;;21.23;10.18;;;;;;;-146.25;100.00;52627.75;2080021;28;22660;-69
2024/01/05 04:19:10;;;;;;;16.65;7.53;;;;;;;-146.25;100.00;52627.75;2080028;28;38255;-69
2024/01/05 04:20:12;;;;;;;23.08;10.63;;;;;;;-146.25;100.00;52619.63;2080944;28;20042;-69
2024/01/05 04:21:14;;;;;;;24.73;10.82;;;;;;;-146.25;100.00;52672.34;2080025;28;36071;-69
2024/01/05 04:22:18;;;;;;;23.13;10.20;;;;;;;-146.25;100.00;52637.88;2079417;28;34023;-70
2024/01/05 04:23:19;;;;;;;23.40;11.27;;;;;;;-146.25;100.00;52599.34;2079905;28;32105;-70
2024/01/05 04:24:21;;;;;;;22.13;11.00;;;;;;;-146.25;100.00;52613.53;2079156;28;35560;-70
2024/01/05 04:25:23;;;;;;;23.38;10.77;;;;;;;-146.25;100.00;52635.84;2080114;28;33504;-71
2024/01/05 04:26:26;;;;;;;24.30;10.93;;;;;;;-146.25;100.00;52623.69;2080139;28;31823;-70
2024/01/05 04:27:28;;;;;;;20.73;10.10;;;;;;;-146.25;100.00;52639.91;2078790;28;38281;-69
2024/01/05 04:28:30;;;;;;;23.05;10.50;;;;;;;-146.25;100.00;52617.59;2079008;28;30341;-70
2024/01/05 04:29:33;;;;;;;28.48;12.15;;;;;;;-146.25;100.00;52635.84;2079860;28;20041;-70
2024/01/05 04:30:35;;;;;;;25.40;11.75;;;;;;;-146.25;100.00;52639.91;2078904;28;38073;-70
2024/01/05 04:31:40;;;;;;;25.48;11.93;;;;;;;-146.25;100.00;52613.53;2080051;28;33369;-70
2024/01/05 04:32:43;;;;;;;26.92;11.50;;;;;;;-146.25;100.00;52635.84;2079535;28;33171;-70
2024/01/05 04:33:45;;;;;;;28.13;12.05;;;;;;;-146.25;100.00;52643.97;2079756;28;34239;-71
2024/01/05 04:34:48;;;;;;;23.80;10.77;;;;;;;-146.25;100.00;52656.13;2079594;28;20038;-70
2024/01/05 04:35:49;;;;;;;28.17;12.00;;;;;;;-146.25;100.00;52676.41;2079313;28;32489;-70
2024/01/05 04:36:51;;;;;;;29.85;12.90;;;;;;;-146.25;100.00;52645.97;2079176;28;35485;-70
2024/01/05 04:37:56;;;;;;;31.05;11.95;;;;;;;-146.25;100.00;52631.78;2079950;28;32228;-70
2024/01/05 04:38:57;;;;;;;24.08;10.82;;;;;;;-146.25;100.00;52652.06;2079542;28;32290;-70
2024/01/05 04:39:59;;;;;;;28.70;11.50;;;;;;;-146.25;100.00;52625.72;2079719;28;35894;-71
2024/01/05 04:41:02;;;;;;;24.50;11.68;;;;;;;-146.25;100.00;52623.69;2086680;28;33760;-70
2024/01/05 04:42:04;;;;;;;24.75;10.60;;;;;;;-146.25;100.00;52650.03;2087044;28;37570;-71
2024/01/05 04:43:07;;;;;;;28.52;11.45;;;;;;;-146.25;100.00;52613.53;2080156;28;20045;-69